Strawberry, CA

5:51 AM PDT on September 17, 2014 (GMT -0700)
Columbia Airport | Change Station
CLOSE
Current Station
Airport
Location: Columbia Airport,
Elevation: 2119 ft
Nearby Weather Stations

Elev 2119 ft 38.03 °N, 120.41 °W | Updated 16 minutes ago

Clear
Clear
59 °F
Feels Like 59 °F
N
0
Wind Variable Wind from North

Today
High -- | Low -- °F
--% Chance of Precip.
Yesterday
High -- | Low -- °F
Precip. -- in
6:43 AM 7:04 PM
Last Quarter, 36% visible
Pressure 29.83 in
Visibility 10.0 miles
Clouds Clear
Dew Point 39 °F
Humidity 48%
Rainfall 0.00 in
Snow Depth 0 in , 3 in , 0 in
UV 0 out of 12
Pollen 6.20 out of 12
Ozone Good
Flu Activity Not available.
METAR KO22 171235Z AUTO 00000KT 10SM CLR 15/04 A2983 RMK AO1

More Conditions Fewer Conditions

Pressure 29.83 in
Visibility 10.0 miles
Clouds Clear
Dew Point 39 °F
Humidity 48%
Rainfall 0.00 in
Snow Depth 0 in , 3 in , 0 in
UV 0 out of 12
Pollen 6.20 out of 12
Ozone Good
Flu Activity Not available.
METAR KO22 171235Z AUTO 00000KT 10SM CLR 15/04 A2983 RMK AO1

More Conditions Fewer Conditions

10-Day Weather Forecast

Almanac

Astronomy

Sep. 17, 2014 Rise Set
Actual Time 6:43 AM PDT 7:04 PM PDT
Civil Twilight 6:17 AM PDT 7:31 PM PDT
Nautical Twilight 5:46 AM PDT 8:02 PM PDT
Astronomical Twilight 5:14 AM PDT 8:33 PM PDT
Moon 12:51 AM PDT 3:14 PM PDT
Length of Visible Light 13h 14m
Length of Day
12h 21m
Tomorrow will be 2m 26s shorter.
Last Quarter, 36% of the Moon is Illuminated
Today
Last Quarter
Sep 24
New
Oct 1
First Quarter
Oct 8
Full
Oct 15
Last Quarter

Today's Extremes

State Highs State Lows

Community

WunderPhotos

Upload Photos

1,754,021 photos uploaded!

Nearby

Air Quality

  Air Quality AQ Index Pollutant
Yesterday Good
OZONE
Current Good
OZONE

Snow Depth

Station Depth Elevation
Fallen Leaf 0 in 6300 ft
CSS Lab 3 in 6900 ft
Tahoe City Cross 0 in 6750 ft
Summit Meadow 1 in 9122 ft
Spratt Creek 1 in 6200 ft

Earthquake Activity

City Distance Mag. Time & Date
No recent earthquake activity has been reported nearby.
Minimum magnitude displayed is 2.5.

Coastal Water Temperatures

Place Temperature
No Stations Reporting

Nearby Weather Stations